Tiempo atmosférico en la estación meteorológica de Polinyà de Xúquer, València/Valencia (12 m.)



Fecha
DESCASC
Temp. máxima en grados centígrados (hora)
DESCASC
Temp. mínima en grados centígrados (hora)
DESCASC
Temp. media en grados centígrados
DESCASC
Racha de viento máxima en m/sg (hora)
DESCASC
Velocidad máxima media en intervalos de 10 minutos(hora)
DESCASC
Precipitaciones diarias en mm
DESCASC
Precipitaciones de 00:00 a 06:00 en mm
DESCASC
Precipitaciones de 06:00 a 12:00 en mm
DESCASC
Precipitaciones de 12:00 a 18:00 en mm
DESCASC
Precipitaciones de 18:00 a 24:00 en mm
DESCASC
13-06-2019 22.7 (14:30) 16.3 (23:10) 19.5 9.44 (17:30) 4.17 (14:40) 2.1 2 0 0.1 0
12-06-2019 21.6 (14:40) 11.4 (04:50) 16.5 10 (17:20) 5.28 (15:50) 0 0 0 0 0
11-06-2019 22.4 (13:20) 16.3 (23:59) 19.3 10 (15:20) 5.56 (15:20) 0 0 0 0 0
10-06-2019 25.1 (12:30) 13.4 (06:30) 19.3 12.22 (16:10) 6.11 (17:10) 0 0 0 0 0
09-06-2019 27 (15:00) 15.6 (00:00) 21.3 8.89 (16:40) 5 (17:30) 0 0 0 0 0
08-06-2019 21.5 (15:10) 16.4 (00:00) 18.9 8.61 (11:50) 5 (10:20) 0 0 0 0 0
07-06-2019 30.8 (17:30) 15 (00:00) 22.9 7.22 (13:10) 3.89 (19:00) 0 0 0 0 0
06-06-2019 23.8 (12:30) 12.4 (00:00) 18.1 10.28 (19:20) 5.83 (19:20) 0 0 0 0 0
05-06-2019 29.7 (17:10) 14.9 (00:00) 22.3 12.5 (11:00) 4.17 (12:20) 0.4 0 0.4 0 0
04-06-2019 28 (17:30) 14.1 (00:00) 21.1 8.06 (18:50) 3.89 (15:30) 0 0 0 0 0
03-06-2019 27.3 (15:30) 12.8 (00:00) 20 8.89 (16:20) 5.28 (16:10) 0 0 0 0 0
02-06-2019 25.7 (15:00) 14.5 (00:00) 20.1 10.83 (16:50) 5.83 (18:10) 0 0 0 0 0
01-06-2019 25 (17:10) 13 (00:00) 19 11.11 (15:40) 5.28 (14:40) 0 0 0 0 0
31-05-2019 25.1 (12:40) 11.9 (00:00) 18.5 10.83 (16:40) 5.83 (14:30) 0 0 0 0 0
30-05-2019 24.3 (16:30) 12 (00:00) 18.1 8.89 (17:00) 4.72 (15:50) 0 0 0 0 0
29-05-2019 23 (15:20) 10.8 (00:00) 16.9 8.61 (18:10) 4.44 (19:40) 0 0 0 0 0
28-05-2019 21.9 (09:50) 15.2 (00:00) 18.5 12.22 (16:40) 5.83 (16:20) 0 0 0 0 0
27-05-2019 24 (18:30) 14.2 (00:00) 19.1 10.83 (15:50) 5.83 (15:10) 0 0 0 0 0
26-05-2019 22.6 (12:20) 12.5 (00:00) 17.6 9.17 (15:40) 5 (15:40) 0 0 0 0 0
25-05-2019 22.6 (16:50) 14.8 (00:00) 18.7 6.67 (17:00) 3.33 (15:30) 0.6 0.1 0.3 0.2 0
24-05-2019 18.3 (07:00) 15.6 (00:00) 16.9 10.83 (14:40) 5 (14:40) 1.8 0 1 0.8 0
23-05-2019 27.6 (17:30) 13.3 (00:00) 20.5 8.06 (14:30) 4.72 (14:10) 0 0 0 0 0
22-05-2019 23.1 (13:00) 12.5 (00:00) 17.8 10 (16:20) 5.83 (16:20) 0 0 0 0 0
21-05-2019 22 (14:10) 15.3 (06:00) 18.7 11.11 (18:50) 6.11 (17:00) 3 2.9 0.1 0 0
20-05-2019 23.4 (13:20) 9.6 (06:10) 16.5 11.39 (15:20) 5.83 (15:30) 0 0 0 0 0
19-05-2019 24.2 (13:50) 12.3 (00:00) 18.3 8.33 (15:00) 3.89 (16:20) 0 0 0 0 0
18-05-2019 19.9 (14:00) 10.7 (00:00) 15.3 8.33 (14:20) 4.44 (15:20) 0.3 0 0 0.3 0
17-05-2019 25.2 (16:30) 14.8 (00:00) 20 8.89 (15:50) 2.78 (06:20) 0 0 0 0 0

Gráficas

Temp. máximas Temp. mínimas Temp. medias Precipitaciones Rachas de viento máximas Velocidades máximas media en intervalos de 10 minutos

Datos horarios

Fecha y hora oficial Temperatura (ºC) Velocidad del viento (km/h) Dirección del viento Racha (km/h) Dirección de racha Precipitación (mm) Presión (hPa) Tendencia (hPa) Humedad (%)
2019-06-15 23:00:00 19.6 4 Norte 18 Norte 0 -- -- 67
2019-06-15 22:00:00 20.8 5 Norte 17 Este 0 -- -- 63
2019-06-15 21:00:00 22.4 11 Este 26 Este 0 -- -- 53
2019-06-15 20:00:00 24.2 12 Este 31 Este 0 -- -- 45
2019-06-15 19:00:00 25.7 13 Este 40 Este 0 -- -- 40
2019-06-15 18:00:00 25.8 18 Este 44 Este 0 -- -- 37
2019-06-15 17:00:00 26.8 22 Este 42 Este 0 -- -- 30
2019-06-15 16:00:00 28.3 13 Sudeste 30 Este 0 -- -- 28
2019-06-15 15:00:00 30.8 3 Sudoeste 22 Sudoeste 0 -- -- 25
2019-06-15 14:00:00 29 5 Sudoeste 26 Sudoeste 0 -- -- 26
2019-06-15 13:00:00 28.1 6 Sudoeste 29 Sudoeste 0 -- -- 28
2019-06-15 12:00:00 25.7 9 Sudoeste 30 Sudoeste 0 -- -- 29
2019-06-15 11:00:00 25.6 4 Sudoeste 27 Sudoeste 0 -- -- 31
2019-06-15 10:00:00 23 13 Sudoeste 29 Sudoeste 0 -- -- 32
2019-06-15 09:00:00 21.7 10 Sudoeste 26 Sudoeste 0 -- -- 35
2019-06-15 08:00:00 19.7 6 Sudoeste 15 Sudoeste 0 -- -- 37
2019-06-15 07:00:00 19.4 0 Calma 11 Sudoeste 0 -- -- 36
2019-06-15 06:00:00 19.9 8 Sudoeste 16 Sudoeste 0 -- -- 34
2019-06-15 05:00:00 20.3 6 Sudoeste 14 Sudoeste 0 -- -- 33
2019-06-15 04:00:00 21.2 6 Sudoeste 16 Sudoeste 0 -- -- 32
2019-06-15 03:00:00 22.3 4 Sudoeste 26 Sudoeste 0 -- -- 30
2019-06-15 02:00:00 23.3 9 Sudoeste 23 Sudoeste 0 -- -- 29
2019-06-15 01:00:00 24 10 Sudoeste 25 Sudoeste 0 -- -- 33
2019-06-15 00:00:00 23.5 9 Sudoeste 15 Sudoeste 0 -- -- 38
2019-06-14 23:00:00 23.4 6 Sudoeste 14 Sudoeste 0 -- -- 53
2019-06-14 22:00:00 24.4 0 Calma 11 Sudeste 0 -- -- 53
2019-06-14 21:00:00 26.7 5 Sudeste 18 Sudeste 0 -- -- 47
2019-06-14 20:00:00 27.4 9 Sudeste 28 Este 0 -- -- 44
2019-06-14 19:00:00 28.1 14 Sudeste 33 Este 0 -- -- 37
2019-06-14 18:00:00 28.2 16 Este 34 Este 0 -- -- 38
2019-06-14 17:00:00 28.3 18 Este 37 Este 0 -- -- 37
2019-06-14 16:00:00 27.5 15 Este 35 Este 0 -- -- 36
2019-06-14 15:00:00 26.9 15 Este 28 Este 0 -- -- 37
2019-06-14 14:00:00 26.5 13 Este 26 Este 0 -- -- 36
2019-06-14 13:00:00 26.8 9 Este 22 Este 0 -- -- 36
2019-06-14 12:00:00 25.1 3 Sudoeste 15 Sudoeste 0 -- -- 37
2019-06-14 11:00:00 22.8 6 Sudoeste 17 Sudoeste 0 -- -- 40
2019-06-14 10:00:00 22.1 6 Sudoeste 13 Sudoeste 0 -- -- 41
2019-06-14 09:00:00 19.4 5 Sudoeste 16 Sudoeste 0 -- -- 45
2019-06-14 08:00:00 16.5 8 Sudoeste 17 Sudoeste 0 -- -- 63
2019-06-14 07:00:00 16.3 4 Sudoeste 15 Sudoeste 0 -- -- 68
2019-06-14 06:00:00 16.1 0 Calma 10 Sudoeste 0 -- -- 69
2019-06-14 05:00:00 16.5 4 Sudoeste 16 Sudoeste 0 -- -- 69
2019-06-14 04:00:00 15.9 0 Calma -- -- 0 -- -- 75
2019-06-14 03:00:00 15.3 0 Calma 7 Sudoeste 0 -- -- 76
2019-06-14 02:00:00 15.6 0 Calma -- -- 0 -- -- 76
2019-06-14 01:00:00 16.3 0 Calma -- -- 0 -- -- 72
2019-06-14 00:00:00 16.6 0 Calma 5 Sur 0 -- -- 69
2019-06-13 23:00:00 16.5 0 Calma 5 Nordeste 0 -- -- 65
2019-06-13 22:00:00 17.7 3 Nordeste 10 Nordeste 0 -- -- 60
2019-06-13 21:00:00 19.1 8 Nordeste 18 Este 0 -- -- 54
2019-06-13 20:00:00 20.1 10 Nordeste 19 Nordeste 0 -- -- 51
2019-06-13 19:00:00 21.1 10 Este 22 Este 0 -- -- 53
2019-06-13 18:00:00 22.2 11 Este 34 Nordeste 0 -- -- 51
2019-06-13 17:00:00 21.8 11 Nordeste 23 Nordeste 0 -- -- 51
2019-06-13 16:00:00 21.6 15 Nordeste 26 Nordeste 0 -- -- 50
2019-06-13 15:00:00 21.9 13 Nordeste 26 Nordeste 0 -- -- 50
2019-06-13 14:00:00 21.7 13 Nordeste 25 Nordeste 0 -- -- 53
2019-06-13 13:00:00 20.7 13 Nordeste 24 Este 0.1 -- -- 58
2019-06-13 12:00:00 20.7 11 Este 23 Este 0 -- -- 62
2019-06-13 11:00:00 19 0 Calma 5 Este 0 -- -- 72
2019-06-13 10:00:00 18 0 Calma 5 Sudoeste 0 -- -- 76
2019-06-13 09:00:00 16.9 0 Calma -- -- 0 -- -- 76
2019-06-13 08:00:00 16.4 0 Calma 13 Sudoeste 0 -- -- 76
2019-06-13 07:00:00 16.7 0 Calma 12 Norte 0 -- -- 78
2019-06-13 06:00:00 17.2 0 Calma 14 Norte 0 -- -- 80
2019-06-13 05:00:00 17.5 0 Calma 14 Sur 0 -- -- 80
2019-06-13 04:00:00 16.8 6 Norte 15 Noroeste 0.4 -- -- 81
2019-06-13 03:00:00 17.3 3 Este 15 Nordeste 1.5 -- -- 80
2019-06-13 02:00:00 17.7 9 Nordeste 21 Nordeste 0.1 -- -- 77
2019-06-13 01:00:00 18.4 10 Nordeste 17 Nordeste 0 -- -- 72
2019-06-13 00:00:00 18.6 7 Nordeste 13 Nordeste 0 -- -- 70
2019-06-12 23:00:00 18.4 7 Este 18 Este 0 -- -- 71
2019-06-12 22:00:00 17.9 10 Este 28 Este 0 -- -- 70
2019-06-12 21:00:00 18.3 13 Este 33 Este 0 -- -- 67
2019-06-12 20:00:00 19 16 Este 32 Este 0 -- -- 61
2019-06-12 19:00:00 19.6 17 Este 32 Este 0 -- -- 53
2019-06-12 18:00:00 20.5 15 Este 36 Este 0 -- -- 45
2019-06-12 17:00:00 20.1 18 Este 35 Este 0 -- -- 42
2019-06-12 16:00:00 20.4 18 Este 34 Este 0 -- -- 43
2019-06-12 15:00:00 21 15 Este 35 Este 0 -- -- 40
2019-06-12 14:00:00 20.8 15 Este 27 Este 0 -- -- 44
2019-06-12 13:00:00 20.8 10 Este 22 Sudeste 0 -- -- 43
2019-06-12 12:00:00 20.1 5 Nordeste 18 Nordeste 0 -- -- 44
2019-06-12 11:00:00 19.3 7 Nordeste 16 Noroeste 0 -- -- 48
2019-06-12 10:00:00 17.9 4 Norte 10 Norte 0 -- -- 56
2019-06-12 09:00:00 17.1 2 Sudoeste 8 Sudoeste 0 -- -- 60
2019-06-12 08:00:00 14.7 3 Sudoeste 9 Sudoeste 0 -- -- 69
2019-06-12 07:00:00 13.2 4 Sudoeste 12 Sudoeste 0 -- -- 74
2019-06-12 06:00:00 12.6 6 Sudoeste 10 Sudoeste 0 -- -- 74
2019-06-12 05:00:00 11.9 0 Calma 7 Sudoeste 0 -- -- 77
2019-06-12 04:00:00 12.2 0 Calma 8 Sudoeste 0 -- -- 75
2019-06-12 03:00:00 13.7 2 Sudoeste 5 Sudoeste 0 -- -- 72
2019-06-12 02:00:00 14 0 Calma 0 Calma 0 -- -- 70
2019-06-12 01:00:00 15.3 0 Calma 3 Sudoeste 0 -- -- 66
2019-06-12 00:00:00 16.3 0 Calma 10 Sudeste 0 -- -- 62
2019-06-11 23:00:00 16.8 4 Sudeste 16 Sudeste 0 -- -- 57
2019-06-11 22:00:00 17.2 7 Este 17 Este 0 -- -- 51
2019-06-11 21:00:00 18 11 Este 19 Sudeste 0 -- -- 50
2019-06-11 20:00:00 18.1 8 Este 18 Nordeste 0 -- -- 53
2019-06-11 19:00:00 18.6 11 Nordeste 24 Nordeste 0 -- -- 46
2019-06-11 18:00:00 19.1 14 Nordeste 27 Nordeste 0 -- -- 47
2019-06-11 17:00:00 18.9 16 Nordeste 30 Nordeste 0 -- -- 48
2019-06-11 16:00:00 19.6 17 Nordeste 36 Este 0 -- -- 46
2019-06-11 15:00:00 21.8 20 Este 33 Este 0 -- -- 44
2019-06-11 14:00:00 21.9 18 Nordeste 32 Este 0 -- -- 45
2019-06-11 13:00:00 21.4 14 Nordeste 28 Nordeste 0 -- -- 46
2019-06-11 12:00:00 21.4 13 Nordeste 29 Nordeste 0 -- -- 46
2019-06-11 11:00:00 20.7 14 Nordeste 27 Nordeste 0 -- -- 47
2019-06-11 10:00:00 20.6 5 Norte 13 Noroeste 0 -- -- 56
2019-06-11 09:00:00 20 0 Calma 6 Sudoeste 0 -- -- 62
2019-06-11 08:00:00 18.8 3 Sudoeste 12 Sudoeste 0 -- -- 66
2019-06-11 07:00:00 17.3 0 Calma 9 Sudoeste 0 -- -- 70
2019-06-11 06:00:00 17.8 5 Sudoeste 10 Sudoeste 0 -- -- 68
2019-06-11 05:00:00 17.3 6 Sudoeste 9 Sudoeste 0 -- -- 69
2019-06-11 04:00:00 17.8 0 Calma 5 Sudeste 0 -- -- 68
2019-06-11 03:00:00 18.5 0 Calma 5 Noroeste 0 -- -- 69
2019-06-11 02:00:00 19.2 0 Calma 11 Norte 0 -- -- 73
2019-06-11 01:00:00 19.8 4 Norte 13 Norte 0 -- -- 72
2019-06-11 00:00:00 19.9 4 Norte 14 Norte 0 -- -- 72
2019-06-10 23:00:00 20.1 5 Norte 14 Norte 0 -- -- 75
2019-06-10 22:00:00 19.6 5 Nordeste 21 Este 0 -- -- 72
2019-06-10 21:00:00 20.4 10 Este 29 Este 0 -- -- 68
2019-06-10 20:00:00 21.4 16 Este 33 Este 0 -- -- 64
2019-06-10 19:00:00 21.2 17 Este 38 Este 0 -- -- 62
2019-06-10 18:00:00 22.1 18 Este 41 Sudeste 0 -- -- 55
2019-06-10 17:00:00 22.8 20 Este 44 Este 0 -- -- 54
2019-06-10 16:00:00 23 20 Este 39 Este 0 -- -- 55
2019-06-10 15:00:00 23.8 17 Este 34 Este 0 -- -- 51
2019-06-10 14:00:00 24.3 15 Este 29 Sudeste 0 -- -- 47
2019-06-10 13:00:00 24.5 12 Este 23 Este 0 -- -- 41
2019-06-10 12:00:00 24.4 10 Nordeste 20 Nordeste 0 -- -- 31
2019-06-10 11:00:00 23.9 3 Nordeste 7 Nordeste 0 -- -- 35
2019-06-10 10:00:00 22.3 0 Calma 8 Noroeste 0 -- -- 45
2019-06-10 09:00:00 19 0 Calma -- -- 0 -- -- 60
2019-06-10 08:00:00 16.2 0 Calma -- -- 0 -- -- 72
2019-06-10 07:00:00 13.9 0 Calma -- -- 0 -- -- 78
2019-06-10 06:00:00 13.8 0 Calma -- -- 0 -- -- 78
2019-06-10 05:00:00 14 0 Calma -- -- 0 -- -- 78
2019-06-10 04:00:00 15.2 0 Calma -- -- 0 -- -- 78
2019-06-10 03:00:00 14.7 0 Calma -- -- 0 -- -- 78
2019-06-10 02:00:00 16.2 0 Calma -- -- 0 -- -- 77
2019-06-10 01:00:00 17.8 0 Calma 5 Sudoeste 0 -- -- 78
2019-06-10 00:00:00 17.9 0 Calma -- -- 0 -- -- 76
2019-06-09 23:00:00 18.9 0 Calma 10 Nordeste 0 -- -- 74
2019-06-09 22:00:00 20.2 2 Norte 11 Nordeste 0 -- -- 73
2019-06-09 21:00:00 21.9 8 Nordeste 19 Nordeste 0 -- -- 57
2019-06-09 20:00:00 23.5 12 Este 29 Este 0 -- -- 48
2019-06-09 19:00:00 23.3 17 Este 31 Este 0 -- -- 51
2019-06-09 18:00:00 22.6 13 Este 32 Este 0 -- -- 41
2019-06-09 17:00:00 24.7 15 Este 32 Este 0 -- -- 31
2019-06-09 16:00:00 24.3 12 Este 27 Este 0 -- -- 30
2019-06-09 15:00:00 27 2 Sudeste 11 Este 0 -- -- 30
2019-06-09 14:00:00 24.9 0 Calma 10 Sudoeste 0 -- -- 31
2019-06-09 13:00:00 23.7 3 Sudoeste 14 Sudoeste 0 -- -- 33
2019-06-09 12:00:00 21.3 4 Sudoeste 22 Sudoeste 0 -- -- 35
2019-06-09 11:00:00 20.1 9 Sudoeste 26 Sudoeste 0 -- -- 43
2019-06-09 10:00:00 18.8 10 Sudoeste 23 Sudoeste 0 -- -- 48
2019-06-09 09:00:00 18.1 9 Sudoeste 19 Sudoeste 0 -- -- 53
2019-06-09 08:00:00 17.6 7 Sudoeste 18 Sudoeste 0 -- -- 58
2019-06-09 07:00:00 16.5 8 Sudoeste 19 Sudoeste 0 -- -- 66
2019-06-09 06:00:00 16.4 10 Sudoeste 19 Sudoeste 0 -- -- 69
2019-06-09 05:00:00 16 9 Sudoeste 18 Sudoeste 0 -- -- 72
2019-06-09 04:00:00 15.9 5 Sudoeste 11 Sudoeste 0 -- -- 72
2019-06-09 03:00:00 15.7 5 Sudoeste 12 Sudoeste 0 -- -- 72
2019-06-09 02:00:00 16.1 5 Sudoeste 10 Sudoeste 0 -- -- 72
2019-06-09 01:00:00 16.1 0 Calma -- -- 0 -- -- 70
2019-06-09 00:00:00 16.8 0 Calma 3 Nordeste 0 -- -- 68
2019-06-08 23:00:00 17.4 0 Calma 9 Nordeste 0 -- -- 64
2019-06-08 22:00:00 17.9 5 Norte 10 Nordeste 0 -- -- 61
2019-06-08 21:00:00 18.9 6 Nordeste 15 Nordeste 0 -- -- 55
2019-06-08 20:00:00 19.7 9 Nordeste 18 Nordeste 0 -- -- 53
2019-06-08 19:00:00 20 9 Nordeste 21 Nordeste 0 -- -- 51
2019-06-08 18:00:00 20.6 10 Nordeste 21 Este 0 -- -- 50
2019-06-08 17:00:00 20.6 12 Nordeste 27 Nordeste 0 -- -- 50
2019-06-08 16:00:00 21.3 13 Nordeste 29 Nordeste 0 -- -- 50
2019-06-08 15:00:00 21.2 15 Nordeste 26 Norte 0 -- -- 50
2019-06-08 14:00:00 20.9 14 Nordeste 27 Nordeste 0 -- -- 51
2019-06-08 13:00:00 20.9 14 Nordeste 27 Norte 0 -- -- 53
2019-06-08 12:00:00 20.8 15 Nordeste 31 Nordeste 0 -- -- 54
2019-06-08 11:00:00 20.8 15 Nordeste 30 Nordeste 0 -- -- 54
2019-06-08 10:00:00 20.3 17 Nordeste 29 Norte 0 -- -- 57
2019-06-08 09:00:00 19.9 13 Nordeste 24 Nordeste 0 -- -- 65
2019-06-08 08:00:00 18.8 7 Nordeste 16 Nordeste 0 -- -- 80
2019-06-08 07:00:00 16.6 0 Calma -- -- 0 -- -- 80
2019-06-08 06:00:00 16.8 0 Calma -- -- 0 -- -- 80
2019-06-08 05:00:00 16.8 0 Calma -- -- 0 -- -- 79
2019-06-08 04:00:00 17.4 0 Calma 2 Sudoeste 0 -- -- 79
2019-06-08 03:00:00 17.8 0 Calma 8 Norte 0 -- -- 79
2019-06-08 02:00:00 18 0 Calma 8 Norte 0 -- -- 73
2019-06-08 01:00:00 18.6 5 Norte 10 Sudeste 0 -- -- 69
2019-06-08 00:00:00 19.9 2 Sudeste 23 Nordeste 0 -- -- 63
2019-06-07 23:00:00 20.9 7 Norte 19 Nordeste 0 -- -- 58
2019-06-07 22:00:00 21.7 3 Sudeste 11 Este 0 -- -- 48
2019-06-07 21:00:00 24 5 Sudeste 24 Este 0 -- -- 41
2019-06-07 20:00:00 25.7 11 Este 26 Este 0 -- -- 35
2019-06-07 19:00:00 26.5 14 Este 26 Este 0 -- -- 34
2019-06-07 18:00:00 27.7 6 Sudeste 21 Sudeste 0 -- -- 31
2019-06-07 17:00:00 30.6 3 Noroeste 21 Sur 0 -- -- 24
2019-06-07 16:00:00 30.3 3 Noroeste 26 Sudoeste 0 -- -- 25
2019-06-07 15:00:00 29.4 3 Oeste 26 Sudoeste 0 -- -- 27
2019-06-07 14:00:00 28.9 2 Oeste 26 Norte 0 -- -- 29
2019-06-07 13:00:00 28.4 3 Oeste 24 Sudoeste 0 -- -- 31
2019-06-07 12:00:00 27.3 3 Oeste 20 Sudoeste 0 -- -- 34
2019-06-07 11:00:00 24.3 4 Sudoeste 23 Sudoeste 0 -- -- 37
2019-06-07 10:00:00 22.1 8 Sudoeste 22 Sudoeste 0 -- -- 38
2019-06-07 09:00:00 19.7 8 Sudoeste 21 Sudoeste 0 -- -- 53
2019-06-07 08:00:00 17.1 4 Sudoeste 15 Sudoeste 0 -- -- 72
2019-06-07 07:00:00 15.5 0 Calma 0 Calma 0 -- -- 80
2019-06-07 06:00:00 15.8 0 Calma -- -- 0 -- -- 80
2019-06-07 05:00:00 16.1 0 Calma -- -- 0 -- -- 80
2019-06-07 04:00:00 16.2 0 Calma 8 Sudoeste 0 -- -- 80
2019-06-07 03:00:00 16.8 0 Calma 8 Sudoeste 0 -- -- 80
2019-06-07 02:00:00 17.4 0 Calma 11 Sudoeste 0 -- -- 80
2019-06-07 01:00:00 17.3 0 Calma -- -- 0 -- -- 80
2019-06-07 00:00:00 17.6 0 Calma -- -- 0 -- -- 78
2019-06-06 23:00:00 18 4 Norte 14 Este 0 -- -- 77
2019-06-06 22:00:00 18.5 10 Este 27 Este 0 -- -- 75
2019-06-06 21:00:00 19.6 14 Este 35 Este 0 -- -- 70
2019-06-06 20:00:00 20.4 19 Este 37 Sudeste 0 -- -- 67
2019-06-06 19:00:00 21.5 21 Este 35 Este 0 -- -- 63
2019-06-06 18:00:00 22.1 18 Este 36 Este 0 -- -- 61
2019-06-06 17:00:00 22.6 16 Este 32 Este 0 -- -- 57
2019-06-06 16:00:00 23.5 15 Este 30 Este 0 -- -- 53
2019-06-06 15:00:00 23.6 12 Este 26 Este 0 -- -- 53
2019-06-06 14:00:00 22.8 11 Este 28 Este 0 -- -- 53
2019-06-06 13:00:00 23.2 13 Este 26 Nordeste 0 -- -- 50
2019-06-06 12:00:00 23.3 8 Este 20 Este 0 -- -- 47
2019-06-06 11:00:00 21.8 3 Norte 11 Noroeste 0 -- -- 53
2019-06-06 10:00:00 20.7 0 Calma 12 Sudoeste 0 -- -- 45
2019-06-06 09:00:00 18.2 6 Sudoeste 15 Sudoeste 0 -- -- 43
2019-06-06 08:00:00 16.2 5 Sudoeste 13 Sudoeste 0 -- -- 51
2019-06-06 07:00:00 13.2 2 Sudoeste 8 Sudoeste 0 -- -- 64
2019-06-06 06:00:00 13.4 0 Calma 9 Sudoeste 0 -- -- 70
2019-06-06 05:00:00 15.7 6 Sudoeste 14 Sudoeste 0 -- -- 68
2019-06-06 04:00:00 15.3 6 Sudoeste 11 Sudoeste 0 -- -- 68
2019-06-06 03:00:00 14.5 0 Calma 7 Sudoeste 0 -- -- 66
2019-06-06 02:00:00 15.9 0 Calma 12 Este 0 -- -- 65
2019-06-06 01:00:00 18 6 Sudeste 19 Sudeste 0 -- -- 68
2019-06-06 00:00:00 18.3 6 Este 20 Este 0 -- -- 66
2019-06-05 23:00:00 19.3 8 Sudeste 24 Este 0 -- -- 63
2019-06-05 22:00:00 19.8 9 Sudeste 23 Sudeste 0 -- -- 63
2019-06-05 21:00:00 20.7 9 Este 22 Este 0 -- -- 56
2019-06-05 20:00:00 25.5 4 Sudoeste 15 Sudoeste 0 -- -- 20
2019-06-05 19:00:00 26.9 2 Oeste 27 Oeste 0 -- -- 20
2019-06-05 18:00:00 27.5 6 Sudoeste 25 Sudoeste 0 -- -- 20
2019-06-05 17:00:00 29.1 4 Oeste 32 Sudoeste 0 -- -- 21
2019-06-05 16:00:00 28.1 6 Sudoeste 32 Sudoeste 0 -- -- 22
2019-06-05 15:00:00 26.4 8 Sudoeste 37 Sudoeste 0 -- -- 24
2019-06-05 14:00:00 26.5 5 Oeste 36 Sudoeste 0 -- -- 25
2019-06-05 13:00:00 26 6 Oeste 40 Sudoeste 0 -- -- 24
2019-06-05 12:00:00 25.6 5 Oeste 33 Sudoeste 0.4 -- -- 25
2019-06-05 11:00:00 24.5 12 Sudoeste 45 Sudoeste 0 -- -- 31
2019-06-05 10:00:00 23.9 5 Sudoeste 23 Sudoeste 0 -- -- 45
2019-06-05 09:00:00 20.7 8 Sudoeste 17 Sudoeste 0 -- -- 63
2019-06-05 08:00:00 17.8 0 Calma 5 Sudoeste 0 -- -- 78
2019-06-05 07:00:00 15.5 0 Calma 3 Sudoeste 0 -- -- 80
2019-06-05 06:00:00 15.8 0 Calma -- -- 0 -- -- 79
2019-06-05 05:00:00 16.6 0 Calma -- -- 0 -- -- 79
2019-06-05 04:00:00 17.2 0 Calma 0 Calma 0 -- -- 78
2019-06-05 03:00:00 18.1 0 Calma -- -- 0 -- -- 75
2019-06-05 02:00:00 18.9 0 Calma 5 Norte 0 -- -- 75
2019-06-05 01:00:00 19.6 0 Calma 13 Norte 0 -- -- 74
2019-06-05 00:00:00 20.3 4 Norte 17 Norte 0 -- -- 75
2019-06-04 23:00:00 19.9 5 Norte 17 Norte 0 -- -- 75
2019-06-04 22:00:00 20 6 Norte 22 Noroeste 0 -- -- 74
2019-06-04 21:00:00 20.5 7 Norte 21 Noroeste 0 -- -- 73
2019-06-04 20:00:00 21.2 10 Norte 28 Norte 0 -- -- 70
2019-06-04 19:00:00 22.5 8 Norte 29 Nordeste 0 -- -- 64
2019-06-04 18:00:00 25.6 11 Norte 22 Nordeste 0 -- -- 48
2019-06-04 17:00:00 27.1 12 Nordeste 23 Este 0 -- -- 43
2019-06-04 16:00:00 27.1 12 Este 25 Este 0 -- -- 42
2019-06-04 15:00:00 25.6 14 Este 24 Este 0 -- -- 50
2019-06-04 14:00:00 25.1 11 Nordeste 22 Este 0 -- -- 55
2019-06-04 13:00:00 24.5 10 Este 19 Este 0 -- -- 55
2019-06-04 12:00:00 23.7 8 Este 18 Este 0 -- -- 56
2019-06-04 11:00:00 23.5 6 Este 13 Este 0 -- -- 55
2019-06-04 10:00:00 22.2 3 Sudeste 10 Sudeste 0 -- -- 58
2019-06-04 09:00:00 19.9 0 Calma 6 Sur 0 -- -- 70
2019-06-04 08:00:00 16.9 0 Calma -- -- 0 -- -- 81
2019-06-04 07:00:00 14.4 0 Calma 0 Calma 0 -- -- 81
2019-06-04 06:00:00 14.6 0 Calma 2 Sudoeste 0 -- -- 81
2019-06-04 05:00:00 14.6 0 Calma -- -- 0 -- -- 80
2019-06-04 04:00:00 15.3 0 Calma 4 Sudoeste 0 -- -- 78
2019-06-04 03:00:00 17.3 2 Sudoeste 9 Sudoeste 0 -- -- 76
2019-06-04 02:00:00 17.8 5 Sudoeste 9 Sudoeste 0 -- -- 75
2019-06-04 01:00:00 18.6 4 Sudoeste 8 Sudoeste 0 -- -- 75
2019-06-04 00:00:00 19.3 0 Calma 5 Oeste 0 -- -- 76
2019-06-03 23:00:00 19.3 0 Calma 13 Norte 0 -- -- 76
2019-06-03 22:00:00 19.4 5 Norte 19 Norte 0 -- -- 75
2019-06-03 21:00:00 20.3 8 Norte 22 Norte 0 -- -- 70
2019-06-03 20:00:00 21.5 9 Norte 23 Norte 0 -- -- 60
2019-06-03 19:00:00 25.1 7 Norte 19 Nordeste 0 -- -- 44
2019-06-03 18:00:00 26.1 12 Este 27 Este 0 -- -- 40
2019-06-03 17:00:00 26.3 17 Este 32 Este 0 -- -- 39
2019-06-03 16:00:00 27.1 17 Este 31 Este 0 -- -- 38
2019-06-03 15:00:00 26.8 17 Este 29 Este 0 -- -- 35
2019-06-03 14:00:00 26.1 13 Este 26 Este 0 -- -- 38
2019-06-03 13:00:00 24.7 13 Este 24 Este 0 -- -- 42
2019-06-03 12:00:00 24.4 7 Este 16 Este 0 -- -- 46
2019-06-03 11:00:00 23.6 6 Este 14 Este 0 -- -- 42
2019-06-03 10:00:00 22.1 4 Este 10 Sudeste 0 -- -- 48
2019-06-03 09:00:00 19.9 0 Calma 5 Norte 0 -- -- 57
2019-06-03 08:00:00 17.7 0 Calma 8 Sudoeste 0 -- -- 61
2019-06-03 07:00:00 15.4 4 Sudoeste 9 Sudoeste 0 -- -- 71
2019-06-03 06:00:00 13.4 0 Calma -- -- 0 -- -- 78
2019-06-03 05:00:00 14.6 0 Calma 4 Sudoeste 0 -- -- 76
2019-06-03 04:00:00 15 0 Calma 9 Sudoeste 0 -- -- 74
2019-06-03 03:00:00 16.9 6 Sudoeste 12 Sudoeste 0 -- -- 67
2019-06-03 02:00:00 17.5 8 Sudoeste 12 Sudoeste 0 -- -- 64
2019-06-03 01:00:00 17.8 5 Sudoeste 12 Sudoeste 0 -- -- 64
2019-06-03 00:00:00 18.2 0 Calma 6 Noroeste 0 -- -- 68
2019-06-02 23:00:00 18.6 0 Calma 12 Norte 0 -- -- 68
2019-06-02 22:00:00 19.7 5 Norte 13 Nordeste 0 -- -- 61
2019-06-02 21:00:00 21.5 4 Nordeste 22 Este 0 -- -- 45
2019-06-02 20:00:00 23 14 Este 32 Este 0 -- -- 42
2019-06-02 19:00:00 24.1 18 Este 36 Este 0 -- -- 41
2019-06-02 18:00:00 24.9 19 Este 36 Este 0 -- -- 38
2019-06-02 17:00:00 24.9 19 Este 39 Sudeste 0 -- -- 39
2019-06-02 16:00:00 25.5 17 Este 36 Este 0 -- -- 40
2019-06-02 15:00:00 25.1 17 Este 35 Este 0 -- -- 40
2019-06-02 14:00:00 24.3 16 Este 32 Este 0 -- -- 42
2019-06-02 13:00:00 23.7 16 Este 28 Sudeste 0 -- -- 40
2019-06-02 12:00:00 24.7 10 Este 23 Este 0 -- -- 33
2019-06-02 11:00:00 24.5 5 Este 13 Este 0 -- -- 35
2019-06-02 10:00:00 22.8 3 Sur 17 Sudoeste 0 -- -- 38
2019-06-02 09:00:00 19.4 8 Sudoeste 16 Sudoeste 0 -- -- 46
2019-06-02 08:00:00 16.8 5 Sudoeste 14 Sudoeste 0 -- -- 55
2019-06-02 07:00:00 15.1 5 Sudoeste 12 Sudoeste 0 -- -- 62
2019-06-02 06:00:00 15 5 Sudoeste 10 Sudoeste 0 -- -- 68
2019-06-02 05:00:00 15.5 6 Sudoeste 12 Oeste 0 -- -- 69
2019-06-02 04:00:00 15.8 6 Sudoeste 13 Sudoeste 0 -- -- 67
2019-06-02 03:00:00 15.8 4 Sudoeste 13 Sudoeste 0 -- -- 67
2019-06-02 02:00:00 16 5 Sudoeste 12 Sudoeste 0 -- -- 69
2019-06-02 01:00:00 16 0 Calma 8 Norte 0 -- -- 72
2019-06-02 00:00:00 17.2 4 Norte 9 Norte 0 -- -- 64
2019-06-01 23:00:00 17.7 4 Noroeste 12 Nordeste 0 -- -- 58
2019-06-01 22:00:00 18.5 7 Este 18 Este 0 -- -- 57
2019-06-01 21:00:00 20.5 12 Este 26 Este 0 -- -- 46
2019-06-01 20:00:00 22.2 16 Este 31 Este 0 -- -- 41
2019-06-01 19:00:00 23.5 18 Este 34 Este 0 -- -- 36
2019-06-01 18:00:00 24.6 17 Este 35 Este 0 -- -- 34
2019-06-01 17:00:00 24.7 15 Este 36 Este 0 -- -- 37
2019-06-01 16:00:00 24.1 16 Este 40 Sudeste 0 -- -- 41
2019-06-01 15:00:00 24 17 Este 36 Este 0 -- -- 42
2019-06-01 14:00:00 23.8 16 Este 28 Este 0 -- -- 39
2019-06-01 13:00:00 24.1 12 Este 23 Este 0 -- -- 41
2019-06-01 12:00:00 23.5 9 Este 20 Este 0 -- -- 43
2019-06-01 11:00:00 23.2 5 Este 13 Este 0 -- -- 43
2019-06-01 10:00:00 21.9 4 Sudeste 21 Sudoeste 0 -- -- 50
2019-06-01 09:00:00 18.8 9 Sudoeste 22 Sudoeste 0 -- -- 56
2019-06-01 08:00:00 16.2 6 Sudoeste 13 Sudoeste 0 -- -- 69
2019-06-01 07:00:00 15 5 Sudoeste 13 Sudoeste 0 -- -- 75
2019-06-01 06:00:00 14.7 7 Sudoeste 12 Sudoeste 0 -- -- 78
2019-06-01 05:00:00 13 0 Calma 8 Sudoeste 0 -- -- 78
2019-06-01 04:00:00 14.5 2 Sudoeste 7 Sudoeste 0 -- -- 78
2019-06-01 03:00:00 15.3 0 Calma 8 Sudoeste 0 -- -- 78
2019-06-01 02:00:00 15.9 0 Calma 9 Nordeste 0 -- -- 78
2019-06-01 01:00:00 16.4 5 Norte 8 Nordeste 0 -- -- 74
2019-06-01 00:00:00 17.4 4 Norte 10 Norte 0 -- -- 72
2019-05-31 23:00:00 18.1 5 Norte 11 Nordeste 0 -- -- 68
2019-05-31 22:00:00 19.1 6 Nordeste 16 Este 0 -- -- 53
2019-05-31 21:00:00 20.6 8 Este 27 Este 0 -- -- 46
2019-05-31 20:00:00 21.8 15 Este 32 Este 0 -- -- 41
2019-05-31 19:00:00 23 15 Este 37 Este 0 -- -- 38
2019-05-31 18:00:00 23.9 17 Este 38 Sudeste 0 -- -- 37
2019-05-31 17:00:00 24 18 Este 39 Este 0 -- -- 35
2019-05-31 16:00:00 23.9 18 Este 36 Este 0 -- -- 39
2019-05-31 15:00:00 22.8 21 Este 37 Este 0 -- -- 48
2019-05-31 14:00:00 23 16 Este 30 Este 0 -- -- 43
2019-05-31 13:00:00 24.6 11 Este 23 Este 0 -- -- 36
2019-05-31 12:00:00 24.7 6 Nordeste 17 Nordeste 0 -- -- 35
2019-05-31 11:00:00 23 4 Nordeste 11 Nordeste 0 -- -- 36
2019-05-31 10:00:00 21 2 Sudoeste 13 Sudoeste 0 -- -- 41
2019-05-31 09:00:00 18.7 4 Sudoeste 13 Sur 0 -- -- 50
2019-05-31 08:00:00 16.7 4 Sudoeste 13 Sudoeste 0 -- -- 57
2019-05-31 07:00:00 13.4 6 Sudoeste 14 Sudoeste 0 -- -- 73
2019-05-31 06:00:00 12.4 0 Calma 4 Oeste 0 -- -- 74
2019-05-31 05:00:00 14.2 0 Calma 12 Sudoeste 0 -- -- 73
2019-05-31 04:00:00 14.8 3 Sudoeste 10 Sudoeste 0 -- -- 74
2019-05-31 03:00:00 15.2 0 Calma -- -- 0 -- -- 74
2019-05-31 02:00:00 15.5 0 Calma -- -- 0 -- -- 74
2019-05-31 01:00:00 16.2 0 Calma 2 Norte 0 -- -- 73
2019-05-31 00:00:00 17 2 Noroeste 7 Noroeste 0 -- -- 72
2019-05-30 23:00:00 17.5 3 Norte 9 Nordeste 0 -- -- 63
2019-05-30 22:00:00 18.5 5 Nordeste 11 Este 0 -- -- 56
2019-05-30 21:00:00 21 8 Este 23 Este 0 -- -- 42
2019-05-30 20:00:00 22.7 14 Este 27 Este 0 -- -- 37
2019-05-30 19:00:00 23.5 13 Este 28 Este 0 -- -- 38
2019-05-30 18:00:00 23.8 17 Este 32 Este 0 -- -- 38
2019-05-30 17:00:00 23.8 15 Este 32 Este 0 -- -- 36
2019-05-30 16:00:00 23.2 15 Este 30 Este 0 -- -- 40
2019-05-30 15:00:00 23.4 13 Este 27 Este 0 -- -- 40
2019-05-30 14:00:00 23.5 10 Este 24 Este 0 -- -- 39
2019-05-30 13:00:00 22.8 11 Este 22 Este 0 -- -- 42
2019-05-30 12:00:00 23.1 4 Nordeste 15 Este 0 -- -- 35
2019-05-30 11:00:00 22.4 3 Este 12 Este 0 -- -- 38
2019-05-30 10:00:00 19.6 5 Sudoeste 16 Sudoeste 0 -- -- 43
2019-05-30 09:00:00 17.6 5 Sudoeste 16 Sudoeste 0 -- -- 48
2019-05-30 08:00:00 15.6 6 Sudoeste 16 Sudoeste 0 -- -- 54
2019-05-30 07:00:00 13.8 5 Sudoeste 12 Sudoeste 0 -- -- 57
2019-05-30 06:00:00 13.3 3 Sudoeste 10 Sudoeste 0 -- -- 60
2019-05-30 05:00:00 12.6 0 Calma 10 Sudoeste 0 -- -- 60
2019-05-30 04:00:00 14.2 4 Sudoeste 10 Sudoeste 0 -- -- 56
2019-05-30 03:00:00 14.3 8 Sudoeste 13 Sudoeste 0 -- -- 56
2019-05-30 02:00:00 14.3 7 Sudoeste 13 Sudoeste 0 -- -- 57
2019-05-30 01:00:00 14.2 3 Sudoeste 7 Sudoeste 0 -- -- 64
2019-05-30 00:00:00 14.6 0 Calma 5 Nordeste 0 -- -- 58
2019-05-29 23:00:00 15.7 4 Este 16 Este 0 -- -- 48
2019-05-29 22:00:00 17.4 8 Este 18 Este 0 -- -- 41
2019-05-29 21:00:00 18.8 8 Este 24 Este 0 -- -- 37
2019-05-29 20:00:00 19.8 14 Este 30 Este 0 -- -- 38
2019-05-29 19:00:00 21.1 15 Este 31 Sudeste 0 -- -- 34
2019-05-29 18:00:00 22.4 13 Sudeste 28 Este 0 -- -- 29
2019-05-29 17:00:00 22.2 13 Este 29 Este 0 -- -- 31
2019-05-29 16:00:00 22.5 13 Este 27 Este 0 -- -- 29
2019-05-29 15:00:00 22.7 10 Este 28 Este 0 -- -- 28
2019-05-29 14:00:00 22.4 8 Este 23 Este 0 -- -- 27
2019-05-29 13:00:00 21.5 9 Nordeste 21 Este 0 -- -- 28
2019-05-29 12:00:00 21.3 9 Este 21 Este 0 -- -- 29
2019-05-29 11:00:00 20.3 4 Nordeste 17 Nordeste 0 -- -- 30
2019-05-29 10:00:00 19.6 3 Nordeste 10 Norte 0 -- -- 31
2019-05-29 09:00:00 17.6 2 Norte 8 Noroeste 0 -- -- 48
2019-05-29 08:00:00 14.2 0 Calma 3 Norte 0 -- -- 75
2019-05-29 07:00:00 10.9 0 Calma 8 Sudoeste 0 -- -- 80
2019-05-29 06:00:00 11.2 0 Calma 9 Sudoeste 0 -- -- 78
2019-05-29 05:00:00 12.2 0 Calma -- -- 0 -- -- 78
2019-05-29 04:00:00 12.3 0 Calma 7 Sudoeste 0 -- -- 76
2019-05-29 03:00:00 13.6 0 Calma 13 Sudoeste 0 -- -- 70
2019-05-29 02:00:00 15.2 6 Sudoeste 11 Sudoeste 0 -- -- 69
2019-05-29 01:00:00 14.8 0 Calma -- -- 0 -- -- 72
2019-05-29 00:00:00 15.5 2 Norte 9 Norte 0 -- -- 69
2019-05-28 23:00:00 15.9 0 Calma 4 Nordeste 0 -- -- 62
2019-05-28 22:00:00 17.3 3 Nordeste 13 Este 0 -- -- 57
2019-05-28 21:00:00 18.6 8 Este 22 Este 0 -- -- 50
2019-05-28 20:00:00 19.7 12 Este 27 Este 0 -- -- 45
2019-05-28 19:00:00 20.3 13 Este 34 Este 0 -- -- 43
2019-05-28 18:00:00 20.6 18 Este 39 Este 0 -- -- 44
2019-05-28 17:00:00 21.2 21 Este 44 Este 0 -- -- 43
2019-05-28 16:00:00 21.2 19 Este 38 Este 0 -- -- 41
2019-05-28 15:00:00 21.1 18 Este 36 Este 0 -- -- 42
2019-05-28 14:00:00 21.3 19 Este 39 Este 0 -- -- 41
2019-05-28 13:00:00 21.1 16 Este 31 Este 0 -- -- 44
2019-05-28 12:00:00 20.9 16 Este 31 Este 0 -- -- 41
2019-05-28 11:00:00 21.5 13 Este 26 Este 0 -- -- 47
2019-05-28 10:00:00 21.6 7 Este 14 Este 0 -- -- 53
2019-05-28 09:00:00 19.2 0 Calma 4 Sur 0 -- -- 64
2019-05-28 08:00:00 18.2 0 Calma -- -- 0 -- -- 75
2019-05-28 07:00:00 16.2 3 Sudoeste 13 Sudoeste 0 -- -- 80
2019-05-28 06:00:00 16.2 0 Calma 13 Sudoeste 0 -- -- 81
2019-05-28 05:00:00 16.3 6 Sudoeste 10 Sudoeste 0 -- -- 81
2019-05-28 04:00:00 16.7 0 Calma 7 Sudoeste 0 -- -- 81
2019-05-28 03:00:00 16.6 0 Calma -- -- 0 -- -- 80
2019-05-28 02:00:00 17.6 0 Calma -- -- 0 -- -- 80
2019-05-28 01:00:00 17.8 0 Calma -- -- 0 -- -- 80
2019-05-28 00:00:00 17.9 0 Calma -- -- 0 -- -- 78
2019-05-27 23:00:00 18.3 0 Calma 4 Nordeste 0 -- -- 77
2019-05-27 22:00:00 18.7 0 Calma 17 Nordeste 0 -- -- 76
2019-05-27 21:00:00 19.5 9 Norte 22 Nordeste 0 -- -- 74
2019-05-27 20:00:00 22.3 6 Norte 19 Este 0 -- -- 54
2019-05-27 19:00:00 24 12 Este 26 Sudeste 0 -- -- 44
2019-05-27 18:00:00 23.7 14 Este 30 Este 0 -- -- 48
2019-05-27 17:00:00 22.9 19 Este 37 Este 0 -- -- 48
2019-05-27 16:00:00 22.6 21 Este 39 Este 0 -- -- 47
2019-05-27 15:00:00 22.7 18 Este 35 Este 0 -- -- 44
2019-05-27 14:00:00 23.1 13 Este 31 Este 0 -- -- 41
2019-05-27 13:00:00 22.8 11 Sudeste 27 Este 0 -- -- 44
2019-05-27 12:00:00 22.4 10 Sudeste 24 Este 0 -- -- 44
2019-05-27 11:00:00 23.6 0 Calma 12 Sudoeste 0 -- -- 38
2019-05-27 10:00:00 20.9 3 Sudoeste 15 Sudoeste 0 -- -- 45
2019-05-27 09:00:00 19.4 7 Sudoeste 18 Sudoeste 0 -- -- 53
2019-05-27 08:00:00 17.1 8 Sudoeste 17 Sudoeste 0 -- -- 58
2019-05-27 07:00:00 15.2 5 Sudoeste 13 Sudoeste 0 -- -- 68
2019-05-27 06:00:00 15.2 6 Sudoeste 14 Sudoeste 0 -- -- 69
2019-05-27 05:00:00 15.2 4 Sudoeste 11 Sudoeste 0 -- -- 72
2019-05-27 04:00:00 14.7 0 Calma 13 Sudoeste 0 -- -- 75
2019-05-27 03:00:00 15.5 3 Sudoeste 12 Sudoeste 0 -- -- 75
2019-05-27 02:00:00 15.4 4 Sudoeste 13 Sudoeste 0 -- -- 78
2019-05-27 01:00:00 15.3 4 Sudoeste 8 Sudoeste 0 -- -- 78
2019-05-27 00:00:00 16.1 0 Calma 5 Norte 0 -- -- 76
2019-05-26 23:00:00 16.4 0 Calma 3 Nordeste 0 -- -- 71
2019-05-26 22:00:00 17.7 4 Este 6 Este 0 -- -- 66
2019-05-26 21:00:00 19.5 5 Este 16 Sudeste 0 -- -- 55
2019-05-26 20:00:00 21 10 Este 23 Este 0 -- -- 48
2019-05-26 19:00:00 21.2 13 Este 28 Este 0 -- -- 47
2019-05-26 18:00:00 22.1 16 Este 33 Este 0 -- -- 44
2019-05-26 17:00:00 22.2 14 Este 33 Este 0 -- -- 44
2019-05-26 16:00:00 21.9 15 Este 33 Este 0 -- -- 44
2019-05-26 15:00:00 21.6 15 Este 32 Este 0 -- -- 44
2019-05-26 14:00:00 21.4 16 Este 31 Sudeste 0 -- -- 42
2019-05-26 13:00:00 22.5 12 Este 22 Este 0 -- -- 40
2019-05-26 12:00:00 22.3 10 Este 20 Este 0 -- -- 43
2019-05-26 11:00:00 21.7 6 Nordeste 19 Este 0 -- -- 45
2019-05-26 10:00:00 20.8 2 Oeste 11 Sudoeste 0 -- -- 47
2019-05-26 09:00:00 18.2 7 Sudoeste 17 Sudoeste 0 -- -- 51
2019-05-26 08:00:00 15.8 4 Sudoeste 14 Sudoeste 0 -- -- 62
2019-05-26 07:00:00 14.5 6 Sudoeste 14 Sudoeste 0 -- -- 66
2019-05-26 06:00:00 12.8 0 Calma 9 Sudoeste 0 -- -- 72
2019-05-26 05:00:00 13.8 0 Calma 12 Sudoeste 0 -- -- 67
2019-05-26 04:00:00 15.3 8 Sudoeste 13 Sudoeste 0 -- -- 62
2019-05-26 03:00:00 14.8 4 Sudoeste 11 Sudoeste 0 -- -- 66
2019-05-26 02:00:00 13.9 3 Sudoeste 8 Sudoeste 0 -- -- 72
2019-05-26 01:00:00 14.4 0 Calma 7 Sudoeste 0 -- -- 68
2019-05-26 00:00:00 15.8 0 Calma 6 Oeste 0 -- -- 65
2019-05-25 23:00:00 16.6 0 Calma 10 Sudoeste 0 -- -- 60
2019-05-25 22:00:00 17.5 0 Calma 7 Sudeste 0 -- -- 54
2019-05-25 21:00:00 19.2 4 Sudeste 15 Sudeste 0 -- -- 44
2019-05-25 20:00:00 20.5 7 Este 18 Este 0 -- -- 41
2019-05-25 19:00:00 20.9 8 Sudeste 19 Este 0 -- -- 41
2019-05-25 18:00:00 21.7 8 Este 20 Este 0 -- -- 40
2019-05-25 17:00:00 22.1 11 Este 24 Este 0 -- -- 39
2019-05-25 16:00:00 21.1 5 Este 21 Este 0 -- -- 42
2019-05-25 15:00:00 20.9 9 Nordeste 19 Nordeste 0 -- -- 43
2019-05-25 14:00:00 19.1 3 Nordeste 10 Sudeste 0 -- -- 55
2019-05-25 13:00:00 17.2 0 Calma 9 Sudeste 0.2 -- -- 63
2019-05-25 12:00:00 16.3 6 Este 14 Nordeste 0 -- -- 67
2019-05-25 11:00:00 16.8 9 Nordeste 17 Nordeste 0 -- -- 65
2019-05-25 10:00:00 16.2 0 Calma 0 Calma 0.1 -- -- 77
2019-05-25 09:00:00 16.2 0 Calma 3 Norte 0.2 -- -- 78
2019-05-25 08:00:00 15.3 0 Calma 3 Sur 0 -- -- 78
2019-05-25 07:00:00 15 0 Calma -- -- 0 -- -- 78
2019-05-25 06:00:00 15.1 0 Calma 14 Sudoeste 0 -- -- 75
2019-05-25 05:00:00 15.5 9 Sudoeste 14 Sudoeste 0 -- -- 72
2019-05-25 04:00:00 15.5 5 Sudoeste 15 Sudoeste 0.1 -- -- 72
2019-05-25 03:00:00 15.8 5 Sudoeste 11 Sudoeste 0 -- -- 71
2019-05-25 02:00:00 15.8 7 Sudoeste 11 Sudoeste 0 -- -- 72
2019-05-25 01:00:00 16.1 6 Sudoeste 11 Sudoeste 0 -- -- 72
2019-05-25 00:00:00 16.1 4 Sudoeste 13 Sudoeste 0 -- -- 73
2019-05-24 23:00:00 16 6 Sudoeste 11 Sudoeste 0 -- -- 73
2019-05-24 22:00:00 15.8 0 Calma 6 Sudoeste 0 -- -- 74
2019-05-24 21:00:00 16.6 0 Calma 5 Este 0 -- -- 69
2019-05-24 20:00:00 17.1 3 Este 9 Este 0 -- -- 65
2019-05-24 19:00:00 17.3 3 Este 11 Este 0 -- -- 65
2019-05-24 18:00:00 17.7 6 Este 22 Este 0 -- -- 64
2019-05-24 17:00:00 16.7 11 Nordeste 26 Nordeste 0 -- -- 69
2019-05-24 16:00:00 16.2 13 Nordeste 31 Nordeste 0 -- -- 75
2019-05-24 15:00:00 15.8 13 Nordeste 39 Nordeste 0.6 -- -- 81
2019-05-24 14:00:00 17.2 6 Nordeste 24 Este 0.2 -- -- 81
2019-05-24 13:00:00 17.5 12 Este 28 Nordeste 0 -- -- 81
2019-05-24 12:00:00 17.1 11 Norte 32 Nordeste 0.6 -- -- 81
2019-05-24 11:00:00 17.3 8 Norte 27 Norte 0.4 -- -- 81
2019-05-24 10:00:00 17.7 7 Norte 24 Noroeste 0 -- -- 76
2019-05-24 09:00:00 17.9 7 Noroeste 22 Norte 0 -- -- 73
2019-05-24 08:00:00 17.9 0 Calma 10 Noroeste 0 -- -- 73
2019-05-24 07:00:00 18.3 3 Norte 19 Nordeste 0 -- -- 75
2019-05-24 06:00:00 18 4 Norte 17 Noroeste 0 -- -- 78
2019-05-24 05:00:00 17.4 5 Nordeste 9 Este 0 -- -- 79
2019-05-24 04:00:00 17.4 0 Calma 8 Este 0 -- -- 78
2019-05-24 03:00:00 17.3 0 Calma -- -- 0 -- -- 74
2019-05-24 02:00:00 17 0 Calma -- -- 0 -- -- 72
2019-05-24 01:00:00 17.3 0 Calma 5 Sudoeste 0 -- -- 70
2019-05-24 00:00:00 17.5 0 Calma 8 Sudoeste 0 -- -- 69
2019-05-23 23:00:00 17.7 0 Calma -- -- 0 -- -- 69
2019-05-23 22:00:00 18.7 0 Calma 12 Noroeste 0 -- -- 68
2019-05-23 21:00:00 19.5 5 Norte 17 Norte 0 -- -- 62
2019-05-23 20:00:00 20.9 6 Norte 22 Norte 0 -- -- 59
2019-05-23 19:00:00 21.6 8 Norte 23 Nordeste 0 -- -- 58
2019-05-23 18:00:00 23.9 9 Norte 26 Norte 0 -- -- 48
2019-05-23 17:00:00 27.4 11 Este 25 Este 0 -- -- 36
2019-05-23 16:00:00 25 12 Este 26 Este 0 -- -- 42
2019-05-23 15:00:00 24.2 13 Este 29 Este 0 -- -- 44
2019-05-23 14:00:00 23.5 15 Este 28 Este 0 -- -- 49
2019-05-23 13:00:00 24.1 12 Este 22 Este 0 -- -- 44
2019-05-23 12:00:00 24.8 8 Este 18 Este 0 -- -- 41
2019-05-23 11:00:00 23.2 6 Sudoeste 18 Sudoeste 0 -- -- 35
2019-05-23 10:00:00 20.6 8 Sudoeste 19 Sudoeste 0 -- -- 43
2019-05-23 09:00:00 17.4 8 Sudoeste 16 Sudoeste 0 -- -- 54
2019-05-23 08:00:00 15.8 0 Calma -- -- 0 -- -- 78
2019-05-23 07:00:00 13.6 0 Calma -- -- 0 -- -- 78
2019-05-23 06:00:00 14.9 0 Calma 8 Sudoeste 0 -- -- 78
2019-05-23 05:00:00 15.4 0 Calma 6 Sudoeste 0 -- -- 78
2019-05-23 04:00:00 15.3 0 Calma -- -- 0 -- -- 78
2019-05-23 03:00:00 15.8 0 Calma -- -- 0 -- -- 78
2019-05-23 02:00:00 16.2 0 Calma -- -- 0 -- -- 76
2019-05-23 01:00:00 16.6 0 Calma -- -- 0 -- -- 76
2019-05-23 00:00:00 17 0 Calma -- -- 0 -- -- 76
2019-05-22 23:00:00 17.1 0 Calma 3 Noroeste 0 -- -- 75
2019-05-22 22:00:00 17.8 2 Noroeste 17 Norte 0 -- -- 73
2019-05-22 21:00:00 18.9 7 Norte 24 Norte 0 -- -- 70
2019-05-22 20:00:00 20 8 Norte 18 Norte 0 -- -- 64
2019-05-22 19:00:00 21.4 12 Este 34 Este 0 -- -- 54
2019-05-22 18:00:00 21.1 18 Este 33 Este 0 -- -- 55
2019-05-22 17:00:00 21.8 19 Este 36 Este 0 -- -- 51
2019-05-22 16:00:00 22 18 Este 32 Este 0 -- -- 51
2019-05-22 15:00:00 22.2 12 Sudeste 27 Sudeste 0 -- -- 50
2019-05-22 14:00:00 22.4 12 Este 23 Este 0 -- -- 49
2019-05-22 13:00:00 23 8 Este 19 Este 0 -- -- 47
2019-05-22 12:00:00 21.9 7 Nordeste 17 Este 0 -- -- 48
2019-05-22 11:00:00 20.2 4 Sudoeste 12 Sudoeste 0 -- -- 53
2019-05-22 10:00:00 19.1 0 Calma 9 Sudoeste 0 -- -- 56
2019-05-22 09:00:00 18.3 0 Calma -- -- 0 -- -- 61
2019-05-22 08:00:00 14.9 0 Calma -- -- 0 -- -- 78
2019-05-22 07:00:00 12.6 0 Calma -- -- 0 -- -- 78
2019-05-22 06:00:00 14.1 0 Calma -- -- 0 -- -- 75
2019-05-22 05:00:00 14.1 0 Calma -- -- 0 -- -- 77
2019-05-22 04:00:00 13.9 0 Calma 7 Sudoeste 0 -- -- 78
2019-05-22 03:00:00 13.2 0 Calma 2 Sudoeste 0 -- -- 78
2019-05-22 02:00:00 13.8 0 Calma 3 Sudeste 0 -- -- 74
2019-05-22 01:00:00 14.9 0 Calma 6 Sudoeste 0 -- -- 72
2019-05-22 00:00:00 16.2 3 Sudoeste 22 Sudoeste 0 -- -- 66
2019-05-21 23:00:00 16.5 10 Sudoeste 22 Sudoeste 0 -- -- 67
2019-05-21 22:00:00 17.4 3 Sudoeste 16 Sudoeste 0 -- -- 63
2019-05-21 21:00:00 18.1 8 Sudoeste 25 Sudoeste 0 -- -- 57
2019-05-21 20:00:00 18.9 4 Sudeste 28 Nordeste 0 -- -- 56
2019-05-21 19:00:00 18.7 15 Norte 40 Norte 0 -- -- 66
2019-05-21 18:00:00 19.8 18 Este 37 Este 0 -- -- 61
2019-05-21 17:00:00 20.8 22 Este 37 Este 0 -- -- 56
2019-05-21 16:00:00 21.3 14 Este 27 Este 0 -- -- 57
2019-05-21 15:00:00 21.7 11 Este 21 Nordeste 0 -- -- 55
2019-05-21 14:00:00 21.6 6 Este 15 Nordeste 0 -- -- 55
2019-05-21 13:00:00 18.6 6 Norte 11 Nordeste 0 -- -- 62
2019-05-21 12:00:00 17.9 4 Nordeste 9 Nordeste 0 -- -- 63
2019-05-21 11:00:00 17.6 0 Calma 12 Norte 0 -- -- 63
2019-05-21 10:00:00 17.2 0 Calma 9 Norte 0 -- -- 75
2019-05-21 09:00:00 16.8 0 Calma -- -- 0 -- -- 81
2019-05-21 08:00:00 16.1 0 Calma 6 Sudoeste 0.1 -- -- 82
2019-05-21 07:00:00 15.7 4 Sudoeste 9 Este 0 -- -- 82
2019-05-21 06:00:00 15.4 4 Sudoeste 10 Sudoeste 2.9 -- -- 80
2019-05-21 05:00:00 16.5 4 Sudoeste 8 Sudoeste 0 -- -- 71
2019-05-21 04:00:00 16.7 0 Calma 9 Noroeste 0 -- -- 70
2019-05-21 03:00:00 16.8 0 Calma 16 Noroeste 0 -- -- 72
2019-05-21 02:00:00 17.1 5 Norte 15 Norte 0 -- -- 75
2019-05-21 01:00:00 17.2 5 Norte 16 Noroeste 0 -- -- 76
2019-05-21 00:00:00 17.4 6 Norte 17 Noroeste 0 -- -- 77
2019-05-20 23:00:00 17.1 5 Noroeste 20 Noroeste 0 -- -- 76
2019-05-20 22:00:00 17.5 5 Noroeste 12 Noroeste 0 -- -- 68
2019-05-20 21:00:00 19.2 5 Nordeste 24 Este 0 -- -- 57
2019-05-20 20:00:00 21 9 Sudeste 28 Este 0 -- -- 47
2019-05-20 19:00:00 21.7 12 Sudeste 35 Este 0 -- -- 45
2019-05-20 18:00:00 22 16 Sudeste 36 Sudeste 0 -- -- 44
2019-05-20 17:00:00 22.3 15 Sudeste 37 Este 0 -- -- 41
2019-05-20 16:00:00 21.9 16 Sudeste 41 Este 0 -- -- 41
2019-05-20 15:00:00 22.4 20 Este 39 Este 0 -- -- 38
2019-05-20 14:00:00 22.6 17 Este 34 Este 0 -- -- 38
2019-05-20 13:00:00 22.7 13 Este 29 Este 0 -- -- 37
2019-05-20 12:00:00 21.3 11 Este 23 Este 0 -- -- 37
2019-05-20 11:00:00 20.3 6 Este 15 Este 0 -- -- 41
2019-05-20 10:00:00 19 4 Este 12 Sudoeste 0 -- -- 46
2019-05-20 09:00:00 15.6 8 Sudoeste 14 Sudoeste 0 -- -- 53
2019-05-20 08:00:00 13 0 Calma 12 Sudoeste 0 -- -- 64
2019-05-20 07:00:00 11.6 0 Calma 12 Sudoeste 0 -- -- 64
2019-05-20 06:00:00 9.7 0 Calma 11 Sudoeste 0 -- -- 72
2019-05-20 05:00:00 12.2 9 Sudoeste 15 Sudoeste 0 -- -- 62
2019-05-20 04:00:00 10.5 0 Calma 9 Sudoeste 0 -- -- 73
2019-05-20 03:00:00 12.1 4 Sudoeste 13 Sudoeste 0 -- -- 66
2019-05-20 02:00:00 12 2 Sudoeste 10 Sudoeste 0 -- -- 72
2019-05-20 01:00:00 13.7 3 Sudoeste 6 Sudoeste 0 -- -- 75
2019-05-20 00:00:00 14.1 0 Calma 3 Nordeste 0 -- -- 73
2019-05-19 23:00:00 14.9 2 Este 6 Sudeste 0 -- -- 67
2019-05-19 22:00:00 17.6 3 Sudeste 13 Este 0 -- -- 55
2019-05-19 21:00:00 19.6 4 Este 10 Nordeste 0 -- -- 42
2019-05-19 20:00:00 20.5 4 Este 19 Sudeste 0 -- -- 40
2019-05-19 19:00:00 21.1 10 Este 22 Este 0 -- -- 39
2019-05-19 18:00:00 20.7 13 Este 24 Este 0 -- -- 41
2019-05-19 17:00:00 20.8 9 Este 28 Sudeste 0 -- -- 45
2019-05-19 16:00:00 19.7 11 Sudeste 27 Este 0 -- -- 44
2019-05-19 15:00:00 21.1 14 Sudeste 30 Sudeste 0 -- -- 36
2019-05-19 14:00:00 23 4 Noroeste 23 Sudoeste 0 -- -- 26
2019-05-19 13:00:00 22.6 8 Sudoeste 27 Oeste 0 -- -- 29
2019-05-19 12:00:00 21.4 3 Sudoeste 23 Sudoeste 0 -- -- 34
2019-05-19 11:00:00 18.4 5 Sudoeste 21 Sudoeste 0 -- -- 41
2019-05-19 10:00:00 15.8 12 Sudoeste 24 Sudoeste 0 -- -- 47
2019-05-19 09:00:00 14.1 10 Sudoeste 21 Sudoeste 0 -- -- 58
2019-05-19 08:00:00 13.6 8 Sudoeste 18 Sudoeste 0 -- -- 69
2019-05-19 07:00:00 13 11 Sudoeste 17 Sudoeste 0 -- -- 72
2019-05-19 06:00:00 12.6 10 Sudoeste 20 Sudoeste 0 -- -- 72
2019-05-19 05:00:00 12.7 8 Sudoeste 15 Sudoeste 0 -- -- 76
2019-05-19 04:00:00 13.1 6 Sudoeste 15 Sudoeste 0 -- -- 76
2019-05-19 03:00:00 12.6 8 Sudoeste 14 Sudoeste 0 -- -- 78
2019-05-19 02:00:00 12.5 0 Calma 9 Este 0 -- -- 75
2019-05-19 01:00:00 13.7 0 Calma 10 Norte 0 -- -- 75
2019-05-19 00:00:00 14.8 5 Norte 19 Norte 0 -- -- 72
2019-05-18 23:00:00 14.1 0 Calma 6 Sudeste 0 -- -- 74
2019-05-18 22:00:00 14.4 0 Calma 11 Este 0 -- -- 69
2019-05-18 21:00:00 16.2 5 Este 19 Este 0 -- -- 62
2019-05-18 20:00:00 17.4 6 Sudeste 22 Sudeste 0 -- -- 57
2019-05-18 19:00:00 18 11 Este 23 Este 0 -- -- 56
2019-05-18 18:00:00 17.6 8 Este 21 Este 0 -- -- 55
2019-05-18 17:00:00 18.1 10 Este 28 Este 0 -- -- 56
2019-05-18 16:00:00 16.5 7 Este 28 Este 0.3 -- -- 66
2019-05-18 15:00:00 18.3 13 Sudeste 30 Sudeste 0 -- -- 47
2019-05-18 14:00:00 19.7 14 Este 29 Este 0 -- -- 46
2019-05-18 13:00:00 18.6 11 Este 22 Este 0 -- -- 48
2019-05-18 12:00:00 18.2 12 Este 22 Este 0 -- -- 46
2019-05-18 11:00:00 18.9 9 Este 17 Este 0 -- -- 44
2019-05-18 10:00:00 17.8 0 Calma -- -- 0 -- -- 42
2019-05-18 09:00:00 14.3 0 Calma 3 Norte 0 -- -- 58
2019-05-18 08:00:00 11.9 0 Calma 6 Sudoeste 0 -- -- 67
2019-05-18 07:00:00 11 0 Calma 5 Este 0 -- -- 67
2019-05-18 06:00:00 11 0 Calma -- -- 0 -- -- 63
2019-05-18 05:00:00 12.7 0 Calma 13 Sudoeste 0 -- -- 50
2019-05-18 04:00:00 13.9 5 Sudoeste 12 Sudoeste 0 -- -- 46
2019-05-18 03:00:00 14 8 Sudoeste 15 Sudoeste 0 -- -- 45
2019-05-18 02:00:00 14.9 7 Sudoeste 14 Sudoeste 0 -- -- 43
2019-05-18 01:00:00 14.5 0 Calma 8 Sudoeste 0 -- -- 44
2019-05-18 00:00:00 16.5 0 Calma 8 Sudoeste 0 -- -- 39
2019-05-17 23:00:00 15.9 0 Calma -- -- 0 -- -- 40
2019-05-17 22:00:00 17.7 0 Calma 19 Noroeste 0 -- -- 37
2019-05-17 21:00:00 20.3 6 Noroeste 18 Noroeste 0 -- -- 32
2019-05-17 20:00:00 20.9 3 Noroeste 24 Noroeste 0 -- -- 31
2019-05-17 19:00:00 22.7 6 Noroeste 28 Noroeste 0 -- -- 29
2019-05-17 18:00:00 23.4 8 Noroeste 24 Noroeste 0 -- -- 29
2019-05-17 17:00:00 24.1 5 Noroeste 29 Noroeste 0 -- -- 28
2019-05-17 16:00:00 24.2 5 Noroeste 32 Noroeste 0 -- -- 29
2019-05-17 15:00:00 23.8 4 Noroeste 27 Oeste 0 -- -- 30
2019-05-17 14:00:00 22.8 5 Noroeste 28 Oeste 0 -- -- 31
2019-05-17 13:00:00 23.3 5 Oeste 25 Sudoeste 0 -- -- 30
2019-05-17 12:00:00 22.9 4 Oeste 26 Sur 0 -- -- 32
2019-05-17 11:00:00 21.1 4 Sudoeste 28 Sudoeste 0 -- -- 34
2019-05-17 10:00:00 20.1 4 Oeste 24 Noroeste 0 -- -- 36
2019-05-17 09:00:00 18.6 3 Oeste 22 Noroeste 0 -- -- 38
2019-05-17 08:00:00 17.2 9 Sudoeste 30 Sudoeste 0 -- -- 41
2019-05-17 07:00:00 17.1 6 Sudoeste 31 Sudoeste 0 -- -- 39
2019-05-17 06:00:00 18.5 8 Sudoeste 27 Sur 0 -- -- 39
2019-05-17 05:00:00 15.2 9 Sudoeste 15 Sudoeste 0 -- -- 74
2019-05-17 04:00:00 15 5 Sudoeste 10 Sudoeste 0 -- -- 75
2019-05-17 03:00:00 15.5 5 Sudoeste 10 Oeste 0 -- -- 74
2019-05-17 02:00:00 15.4 5 Sudoeste 11 Sudoeste 0 -- -- 74
2019-05-17 01:00:00 15.8 0 Calma 5 Sur 0 -- -- 73
2019-05-17 00:00:00 16.1 0 Calma 7 Oeste 0 -- -- 72